Impacts METAR Board
IDs:

KPDX - Portland Intl Arpt, OR, US

Updated at: 0200 UTC 20 Mar 2019
Potential Impact None Slight Moderate High
Time 19/14Z 19/15Z 19/16Z 19/17Z 19/18Z 19/19Z 19/20Z 19/21Z 19/22Z 19/23Z 20/00Z 20/01Z 20/02Z
Temp50 50 55 58 62 65 67 69 68 70 68 67 64
Dewpt34 34 35 35 36 35 34 34 33 33 32 32 31
Altim30.03 30.03 30.01 30.00 30.00 29.99 29.98 29.96 29.94 29.92 29.91 29.89 29.88
VIS10 10 10 10 10 10 10 10 10 10 10 10 10
CIG-- -- -- -- -- 250 250 250 250 250 250 250 --
CoverCLRCLRFEWFEWSCTBKNBKNBKNBKNBKNBKNBKNSCT
FltCatVFRVFRVFRVFRVFRVFRVFRVFRVFRVFRVFRVFRVFR
WX--------------------------
WDir1100110110110100901009090100100100
WSpd9 5 15 15 16 16 11 15 15 11 18 16 16
WGst-- -- -- 23 -- -- 18 -- 21 -- 24 23 24
Raw hourly METARs
KPDX 191353Z 11009KT 10SM CLR 10/01 A3003 RMK AO2 SLP168 T01000011
KPDX 191453Z VRB05KT 10SM CLR 10/01 A3003 RMK AO2 SLP167 T01000011 56006
KPDX 191553Z 11015KT 10SM FEW250 13/02 A3001 RMK AO2 SLP162 T01280017
KPDX 191653Z 11015G23KT 10SM FEW250 14/02 A3000 RMK AO2 SLP159 T01440017
KPDX 191753Z 11016KT 10SM SCT250 17/02 A3000 RMK AO2 SLP159 T01670022 10167 20072 56007
KPDX 191853Z 10016KT 10SM BKN250 18/02 A2999 RMK AO2 PK WND 11026/1838 SLP155 T01830017
KPDX 191953Z 09011G18KT 10SM BKN250 19/01 A2998 RMK AO2 SLP150 T01940011
KPDX 192053Z 10015KT 10SM BKN250 21/01 A2996 RMK AO2 SLP144 T02060011 58015
KPDX 192153Z 09015G21KT 10SM BKN250 20/01 A2994 RMK AO2 SLP139 T02000006
KPDX 192253Z 09011KT 10SM BKN250 21/01 A2992 RMK AO2 SLP132 T02110006
KPDX 192353Z 10018G24KT 10SM BKN250 20/00 A2991 RMK AO2 SLP126 T02000000 10211 20161 58018
KPDX 200053Z 10016G23KT 10SM BKN250 19/00 A2989 RMK AO2 SLP121 T01940000
KPDX 200153Z 10016G24KT 10SM SCT180 18/M01 A2988 RMK AO2 SLP116 T01781006



Page loaded:  02:46 UTC  |   07:46 PM Pacific  |   08:46 PM Mountain  |   09:46 PM Central  |   10:46 PM Eastern

 

ADVISORIES

FORECASTS

FORECASTS

OBSERVATIONS

USER TOOLS

ABOUT US